sensor_id;sensor_type;location;lat;lon;timestamp;P1;durP1;ratioP1;P2;durP2;ratioP2
44508;SDS011;30214;52.246;14.408;2022-12-18T00:01:23;35.72;;;15.43;;
44508;SDS011;30214;52.246;14.408;2022-12-18T00:03:54;33.53;;;16.00;;
44508;SDS011;30214;52.246;14.408;2022-12-18T00:06:22;29.75;;;13.68;;
44508;SDS011;30214;52.246;14.408;2022-12-18T00:08:52;28.27;;;12.50;;
44508;SDS011;30214;52.246;14.408;2022-12-18T00:11:23;28.40;;;12.75;;
44508;SDS011;30214;52.246;14.408;2022-12-18T00:13:53;32.00;;;14.13;;
44508;SDS011;30214;52.246;14.408;2022-12-18T00:16:23;31.48;;;14.07;;
44508;SDS011;30214;52.246;14.408;2022-12-18T00:18:52;30.27;;;13.65;;
44508;SDS011;30214;52.246;14.408;2022-12-18T00:21:22;31.52;;;14.35;;
44508;SDS011;30214;52.246;14.408;2022-12-18T00:23:49;30.80;;;13.93;;
44508;SDS011;30214;52.246;14.408;2022-12-18T00:26:19;25.77;;;12.45;;
44508;SDS011;30214;52.246;14.408;2022-12-18T00:28:50;32.50;;;14.07;;
44508;SDS011;30214;52.246;14.408;2022-12-18T00:31:19;30.08;;;13.57;;
44508;SDS011;30214;52.246;14.408;2022-12-18T00:33:48;29.70;;;13.10;;
44508;SDS011;30214;52.246;14.408;2022-12-18T00:36:16;29.48;;;13.23;;
44508;SDS011;30214;52.246;14.408;2022-12-18T00:38:46;29.08;;;12.68;;
44508;SDS011;30214;52.246;14.408;2022-12-18T00:41:17;29.23;;;13.60;;
44508;SDS011;30214;52.246;14.408;2022-12-18T00:44:00;28.60;;;13.43;;
44508;SDS011;30214;52.246;14.408;2022-12-18T00:46:27;34.80;;;14.73;;
44508;SDS011;30214;52.246;14.408;2022-12-18T00:48:55;32.10;;;14.45;;
44508;SDS011;30214;52.246;14.408;2022-12-18T00:51:22;33.00;;;14.68;;
44508;SDS011;30214;52.246;14.408;2022-12-18T00:53:51;30.73;;;13.55;;
44508;SDS011;30214;52.246;14.408;2022-12-18T00:56:22;41.40;;;15.60;;
44508;SDS011;30214;52.246;14.408;2022-12-18T00:58:52;31.70;;;14.63;;
44508;SDS011;30214;52.246;14.408;2022-12-18T01:01:19;31.88;;;15.93;;
44508;SDS011;30214;52.246;14.408;2022-12-18T01:03:46;32.67;;;14.90;;
44508;SDS011;30214;52.246;14.408;2022-12-18T01:06:15;35.50;;;15.57;;
44508;SDS011;30214;52.246;14.408;2022-12-18T01:08:43;34.00;;;15.63;;
44508;SDS011;30214;52.246;14.408;2022-12-18T01:11:12;36.30;;;16.25;;
44508;SDS011;30214;52.246;14.408;2022-12-18T01:13:43;33.35;;;15.20;;
44508;SDS011;30214;52.246;14.408;2022-12-18T01:16:11;35.28;;;15.80;;
44508;SDS011;30214;52.246;14.408;2022-12-18T01:18:39;31.95;;;14.38;;
44508;SDS011;30214;52.246;14.408;2022-12-18T01:21:07;31.00;;;13.93;;
44508;SDS011;30214;52.246;14.408;2022-12-18T01:23:36;27.60;;;12.45;;
44508;SDS011;30214;52.246;14.408;2022-12-18T01:26:04;28.42;;;13.45;;
44508;SDS011;30214;52.246;14.408;2022-12-18T01:28:34;30.38;;;13.50;;
44508;SDS011;30214;52.246;14.408;2022-12-18T01:31:16;28.95;;;12.20;;
44508;SDS011;30214;52.246;14.408;2022-12-18T01:33:49;28.90;;;12.80;;
44508;SDS011;30214;52.246;14.408;2022-12-18T01:36:18;34.17;;;15.60;;
44508;SDS011;30214;52.246;14.408;2022-12-18T01:38:48;27.50;;;12.32;;
44508;SDS011;30214;52.246;14.408;2022-12-18T01:41:17;28.80;;;13.60;;
44508;SDS011;30214;52.246;14.408;2022-12-18T01:43:49;26.90;;;12.77;;
44508;SDS011;30214;52.246;14.408;2022-12-18T01:46:22;27.73;;;13.07;;
44508;SDS011;30214;52.246;14.408;2022-12-18T01:48:56;29.98;;;13.68;;
44508;SDS011;30214;52.246;14.408;2022-12-18T01:51:26;28.50;;;13.73;;
44508;SDS011;30214;52.246;14.408;2022-12-18T01:53:55;31.35;;;14.50;;
44508;SDS011;30214;52.246;14.408;2022-12-18T01:56:23;30.73;;;14.63;;
44508;SDS011;30214;52.246;14.408;2022-12-18T01:58:53;29.88;;;13.20;;
44508;SDS011;30214;52.246;14.408;2022-12-18T02:01:26;33.28;;;13.45;;
44508;SDS011;30214;52.246;14.408;2022-12-18T02:04:13;30.90;;;13.15;;
44508;SDS011;30214;52.246;14.408;2022-12-18T02:06:47;42.13;;;13.98;;
44508;SDS011;30214;52.246;14.408;2022-12-18T02:09:23;36.38;;;13.65;;
44508;SDS011;30214;52.246;14.408;2022-12-18T02:11:59;29.23;;;14.43;;
44508;SDS011;30214;52.246;14.408;2022-12-18T02:17:08;28.98;;;13.52;;
44508;SDS011;30214;52.246;14.408;2022-12-18T02:19:47;32.70;;;14.05;;
44508;SDS011;30214;52.246;14.408;2022-12-18T02:22:29;33.25;;;14.13;;
44508;SDS011;30214;52.246;14.408;2022-12-18T02:25:11;31.83;;;13.70;;
44508;SDS011;30214;52.246;14.408;2022-12-18T02:27:51;32.65;;;13.80;;
44508;SDS011;30214;52.246;14.408;2022-12-18T02:30:20;31.50;;;13.93;;
44508;SDS011;30214;52.246;14.408;2022-12-18T02:32:48;30.25;;;13.48;;
44508;SDS011;30214;52.246;14.408;2022-12-18T02:35:20;30.40;;;13.35;;
44508;SDS011;30214;52.246;14.408;2022-12-18T02:37:56;30.05;;;14.07;;
44508;SDS011;30214;52.246;14.408;2022-12-18T02:40:28;30.48;;;14.43;;
44508;SDS011;30214;52.246;14.408;2022-12-18T02:43:06;33.15;;;14.35;;
44508;SDS011;30214;52.246;14.408;2022-12-18T02:45:34;34.03;;;14.43;;
44508;SDS011;30214;52.246;14.408;2022-12-18T02:48:02;30.40;;;14.10;;
44508;SDS011;30214;52.246;14.408;2022-12-18T02:50:34;33.97;;;14.55;;
44508;SDS011;30214;52.246;14.408;2022-12-18T02:53:10;31.70;;;15.32;;
44508;SDS011;30214;52.246;14.408;2022-12-18T02:55:51;29.75;;;13.85;;
44508;SDS011;30214;52.246;14.408;2022-12-18T02:58:32;28.13;;;13.25;;
44508;SDS011;30214;52.246;14.408;2022-12-18T03:01:13;37.00;;;15.13;;
44508;SDS011;30214;52.246;14.408;2022-12-18T03:03:49;31.23;;;14.48;;
44508;SDS011;30214;52.246;14.408;2022-12-18T03:06:23;31.90;;;15.10;;
44508;SDS011;30214;52.246;14.408;2022-12-18T03:08:56;33.72;;;14.88;;
44508;SDS011;30214;52.246;14.408;2022-12-18T03:11:29;33.08;;;15.48;;
44508;SDS011;30214;52.246;14.408;2022-12-18T03:14:19;33.95;;;14.55;;
44508;SDS011;30214;52.246;14.408;2022-12-18T03:16:50;32.10;;;14.57;;
44508;SDS011;30214;52.246;14.408;2022-12-18T03:19:21;31.33;;;14.23;;
44508;SDS011;30214;52.246;14.408;2022-12-18T03:21:55;30.50;;;14.07;;
44508;SDS011;30214;52.246;14.408;2022-12-18T03:24:24;28.52;;;13.23;;
44508;SDS011;30214;52.246;14.408;2022-12-18T03:26:57;30.48;;;13.60;;
44508;SDS011;30214;52.246;14.408;2022-12-18T03:29:31;31.02;;;13.90;;
44508;SDS011;30214;52.246;14.408;2022-12-18T03:32:04;28.92;;;13.00;;
44508;SDS011;30214;52.246;14.408;2022-12-18T03:34:37;31.05;;;13.00;;
44508;SDS011;30214;52.246;14.408;2022-12-18T03:37:09;32.95;;;14.30;;
44508;SDS011;30214;52.246;14.408;2022-12-18T03:39:36;30.63;;;13.30;;
44508;SDS011;30214;52.246;14.408;2022-12-18T03:42:05;25.30;;;13.32;;
44508;SDS011;30214;52.246;14.408;2022-12-18T03:44:43;30.95;;;14.25;;
44508;SDS011;30214;52.246;14.408;2022-12-18T03:47:19;28.08;;;13.75;;
44508;SDS011;30214;52.246;14.408;2022-12-18T03:49:56;29.35;;;13.23;;
44508;SDS011;30214;52.246;14.408;2022-12-18T03:52:35;29.02;;;13.93;;
44508;SDS011;30214;52.246;14.408;2022-12-18T03:55:08;27.02;;;12.35;;
44508;SDS011;30214;52.246;14.408;2022-12-18T03:57:39;27.13;;;13.13;;
44508;SDS011;30214;52.246;14.408;2022-12-18T04:00:10;26.27;;;12.27;;
44508;SDS011;30214;52.246;14.408;2022-12-18T04:02:52;28.27;;;12.43;;
44508;SDS011;30214;52.246;14.408;2022-12-18T04:05:29;25.52;;;12.50;;
44508;SDS011;30214;52.246;14.408;2022-12-18T04:07:59;24.45;;;12.10;;
44508;SDS011;30214;52.246;14.408;2022-12-18T04:10:27;30.25;;;14.23;;
44508;SDS011;30214;52.246;14.408;2022-12-18T04:12:58;28.05;;;12.77;;
44508;SDS011;30214;52.246;14.408;2022-12-18T04:15:28;28.30;;;12.40;;
44508;SDS011;30214;52.246;14.408;2022-12-18T04:17:57;34.45;;;14.15;;
44508;SDS011;30214;52.246;14.408;2022-12-18T04:20:34;28.70;;;13.02;;
44508;SDS011;30214;52.246;14.408;2022-12-18T04:23:02;25.85;;;12.73;;
44508;SDS011;30214;52.246;14.408;2022-12-18T04:25:29;26.23;;;12.88;;
44508;SDS011;30214;52.246;14.408;2022-12-18T04:28:12;25.35;;;11.85;;
44508;SDS011;30214;52.246;14.408;2022-12-18T04:30:41;24.67;;;11.55;;
44508;SDS011;30214;52.246;14.408;2022-12-18T04:33:08;28.48;;;12.98;;
44508;SDS011;30214;52.246;14.408;2022-12-18T04:35:37;27.58;;;11.65;;
44508;SDS011;30214;52.246;14.408;2022-12-18T04:38:05;23.83;;;11.77;;
44508;SDS011;30214;52.246;14.408;2022-12-18T04:40:33;26.27;;;11.85;;
44508;SDS011;30214;52.246;14.408;2022-12-18T04:43:03;26.55;;;12.32;;
44508;SDS011;30214;52.246;14.408;2022-12-18T04:45:30;24.60;;;10.98;;
44508;SDS011;30214;52.246;14.408;2022-12-18T04:47:59;24.75;;;12.05;;
44508;SDS011;30214;52.246;14.408;2022-12-18T04:50:27;26.90;;;12.10;;
44508;SDS011;30214;52.246;14.408;2022-12-18T04:52:56;29.58;;;12.65;;
44508;SDS011;30214;52.246;14.408;2022-12-18T04:55:23;22.40;;;10.93;;
44508;SDS011;30214;52.246;14.408;2022-12-18T04:57:50;29.58;;;11.80;;
44508;SDS011;30214;52.246;14.408;2022-12-18T05:00:18;26.77;;;11.70;;
44508;SDS011;30214;52.246;14.408;2022-12-18T05:02:45;23.45;;;10.30;;
44508;SDS011;30214;52.246;14.408;2022-12-18T05:05:13;24.77;;;10.82;;
44508;SDS011;30214;52.246;14.408;2022-12-18T05:07:41;24.02;;;11.73;;
44508;SDS011;30214;52.246;14.408;2022-12-18T05:10:08;23.33;;;10.30;;
44508;SDS011;30214;52.246;14.408;2022-12-18T05:12:36;24.95;;;10.98;;
44508;SDS011;30214;52.246;14.408;2022-12-18T05:15:23;24.65;;;11.30;;
44508;SDS011;30214;52.246;14.408;2022-12-18T05:17:51;29.27;;;12.95;;
44508;SDS011;30214;52.246;14.408;2022-12-18T05:20:19;22.52;;;11.95;;
44508;SDS011;30214;52.246;14.408;2022-12-18T05:22:46;26.92;;;12.10;;
44508;SDS011;30214;52.246;14.408;2022-12-18T05:25:13;29.23;;;12.18;;
44508;SDS011;30214;52.246;14.408;2022-12-18T05:27:41;28.92;;;12.25;;
44508;SDS011;30214;52.246;14.408;2022-12-18T05:30:08;27.60;;;13.20;;
44508;SDS011;30214;52.246;14.408;2022-12-18T05:32:37;32.03;;;12.95;;
44508;SDS011;30214;52.246;14.408;2022-12-18T05:35:04;28.80;;;12.52;;
44508;SDS011;30214;52.246;14.408;2022-12-18T05:37:35;26.08;;;11.65;;
44508;SDS011;30214;52.246;14.408;2022-12-18T05:40:03;29.95;;;12.63;;
44508;SDS011;30214;52.246;14.408;2022-12-18T05:42:31;28.98;;;12.68;;
44508;SDS011;30214;52.246;14.408;2022-12-18T05:44:58;27.40;;;12.40;;
44508;SDS011;30214;52.246;14.408;2022-12-18T05:47:26;30.92;;;12.90;;
44508;SDS011;30214;52.246;14.408;2022-12-18T05:49:54;29.27;;;12.98;;
44508;SDS011;30214;52.246;14.408;2022-12-18T05:52:21;30.35;;;14.07;;
44508;SDS011;30214;52.246;14.408;2022-12-18T05:54:50;27.50;;;13.32;;
44508;SDS011;30214;52.246;14.408;2022-12-18T05:57:17;35.92;;;14.85;;
44508;SDS011;30214;52.246;14.408;2022-12-18T05:59:44;27.02;;;14.10;;
44508;SDS011;30214;52.246;14.408;2022-12-18T06:02:11;27.58;;;12.70;;
44508;SDS011;30214;52.246;14.408;2022-12-18T06:04:38;31.80;;;13.80;;
44508;SDS011;30214;52.246;14.408;2022-12-18T06:07:05;26.92;;;12.70;;
44508;SDS011;30214;52.246;14.408;2022-12-18T06:09:32;27.67;;;12.90;;
44508;SDS011;30214;52.246;14.408;2022-12-18T06:12:00;29.40;;;12.30;;
44508;SDS011;30214;52.246;14.408;2022-12-18T06:14:27;25.25;;;12.50;;
44508;SDS011;30214;52.246;14.408;2022-12-18T06:16:54;25.88;;;11.00;;
44508;SDS011;30214;52.246;14.408;2022-12-18T06:19:21;22.08;;;11.02;;
44508;SDS011;30214;52.246;14.408;2022-12-18T06:21:49;27.67;;;11.50;;
44508;SDS011;30214;52.246;14.408;2022-12-18T06:24:16;23.05;;;11.32;;
44508;SDS011;30214;52.246;14.408;2022-12-18T06:26:43;23.80;;;10.88;;
44508;SDS011;30214;52.246;14.408;2022-12-18T06:29:11;21.25;;;10.13;;
44508;SDS011;30214;52.246;14.408;2022-12-18T06:31:38;22.40;;;10.82;;
44508;SDS011;30214;52.246;14.408;2022-12-18T06:34:05;21.92;;;9.80;;
44508;SDS011;30214;52.246;14.408;2022-12-18T06:36:32;18.08;;;9.70;;
44508;SDS011;30214;52.246;14.408;2022-12-18T06:38:59;24.52;;;11.63;;
44508;SDS011;30214;52.246;14.408;2022-12-18T06:41:26;21.52;;;10.55;;
44508;SDS011;30214;52.246;14.408;2022-12-18T06:43:53;22.02;;;10.25;;
44508;SDS011;30214;52.246;14.408;2022-12-18T06:46:22;21.35;;;10.75;;
44508;SDS011;30214;52.246;14.408;2022-12-18T06:48:49;25.13;;;10.25;;
44508;SDS011;30214;52.246;14.408;2022-12-18T06:51:18;21.73;;;9.80;;
44508;SDS011;30214;52.246;14.408;2022-12-18T06:53:50;21.48;;;10.05;;
44508;SDS011;30214;52.246;14.408;2022-12-18T06:56:17;18.25;;;9.50;;
44508;SDS011;30214;52.246;14.408;2022-12-18T06:58:44;20.27;;;9.25;;
44508;SDS011;30214;52.246;14.408;2022-12-18T07:01:12;20.52;;;9.70;;
44508;SDS011;30214;52.246;14.408;2022-12-18T07:03:41;18.98;;;9.40;;
44508;SDS011;30214;52.246;14.408;2022-12-18T07:06:12;25.05;;;10.85;;
44508;SDS011;30214;52.246;14.408;2022-12-18T07:08:41;20.80;;;11.02;;
44508;SDS011;30214;52.246;14.408;2022-12-18T07:11:08;22.90;;;11.02;;
44508;SDS011;30214;52.246;14.408;2022-12-18T07:13:35;21.00;;;9.95;;
44508;SDS011;30214;52.246;14.408;2022-12-18T07:16:06;23.75;;;11.23;;
44508;SDS011;30214;52.246;14.408;2022-12-18T07:18:35;22.40;;;10.75;;
44508;SDS011;30214;52.246;14.408;2022-12-18T07:21:04;22.33;;;10.18;;
44508;SDS011;30214;52.246;14.408;2022-12-18T07:23:32;20.40;;;10.15;;
44508;SDS011;30214;52.246;14.408;2022-12-18T07:26:01;21.98;;;10.15;;
44508;SDS011;30214;52.246;14.408;2022-12-18T07:28:29;22.33;;;9.88;;
44508;SDS011;30214;52.246;14.408;2022-12-18T07:30:57;20.77;;;10.30;;
44508;SDS011;30214;52.246;14.408;2022-12-18T07:33:25;20.05;;;10.15;;
44508;SDS011;30214;52.246;14.408;2022-12-18T07:35:52;19.50;;;10.30;;
44508;SDS011;30214;52.246;14.408;2022-12-18T07:38:21;24.90;;;11.50;;
44508;SDS011;30214;52.246;14.408;2022-12-18T07:40:48;22.27;;;11.57;;
44508;SDS011;30214;52.246;14.408;2022-12-18T07:43:15;24.95;;;12.52;;
44508;SDS011;30214;52.246;14.408;2022-12-18T07:45:43;20.15;;;10.20;;
44508;SDS011;30214;52.246;14.408;2022-12-18T07:48:10;31.00;;;12.35;;
44508;SDS011;30214;52.246;14.408;2022-12-18T07:50:37;25.33;;;12.25;;
44508;SDS011;30214;52.246;14.408;2022-12-18T07:53:04;27.52;;;12.25;;
44508;SDS011;30214;52.246;14.408;2022-12-18T07:55:33;22.88;;;11.77;;
44508;SDS011;30214;52.246;14.408;2022-12-18T07:58:01;26.45;;;13.25;;
44508;SDS011;30214;52.246;14.408;2022-12-18T08:00:29;26.02;;;12.35;;
44508;SDS011;30214;52.246;14.408;2022-12-18T08:02:56;22.55;;;11.10;;
44508;SDS011;30214;52.246;14.408;2022-12-18T08:05:23;25.67;;;10.88;;
44508;SDS011;30214;52.246;14.408;2022-12-18T08:07:51;25.15;;;11.55;;
44508;SDS011;30214;52.246;14.408;2022-12-18T08:10:19;23.98;;;11.45;;
44508;SDS011;30214;52.246;14.408;2022-12-18T08:12:49;27.88;;;13.13;;
44508;SDS011;30214;52.246;14.408;2022-12-18T08:15:16;22.70;;;11.88;;
44508;SDS011;30214;52.246;14.408;2022-12-18T08:17:44;25.40;;;11.45;;
44508;SDS011;30214;52.246;14.408;2022-12-18T08:20:11;23.52;;;12.20;;
44508;SDS011;30214;52.246;14.408;2022-12-18T08:22:39;24.77;;;11.07;;
44508;SDS011;30214;52.246;14.408;2022-12-18T08:25:07;23.40;;;10.68;;
44508;SDS011;30214;52.246;14.408;2022-12-18T08:27:34;22.85;;;11.02;;
44508;SDS011;30214;52.246;14.408;2022-12-18T08:30:03;25.73;;;12.13;;
44508;SDS011;30214;52.246;14.408;2022-12-18T08:32:32;44.85;;;20.20;;
44508;SDS011;30214;52.246;14.408;2022-12-18T08:34:59;34.13;;;15.57;;
44508;SDS011;30214;52.246;14.408;2022-12-18T08:37:26;27.33;;;12.50;;
44508;SDS011;30214;52.246;14.408;2022-12-18T08:39:54;25.55;;;11.75;;
44508;SDS011;30214;52.246;14.408;2022-12-18T08:42:21;29.63;;;12.30;;
44508;SDS011;30214;52.246;14.408;2022-12-18T08:45:08;24.85;;;11.00;;
44508;SDS011;30214;52.246;14.408;2022-12-18T08:47:35;24.50;;;11.10;;
44508;SDS011;30214;52.246;14.408;2022-12-18T08:50:02;25.27;;;11.57;;
44508;SDS011;30214;52.246;14.408;2022-12-18T08:52:31;31.17;;;11.82;;
44508;SDS011;30214;52.246;14.408;2022-12-18T08:54:58;29.38;;;12.70;;
44508;SDS011;30214;52.246;14.408;2022-12-18T08:57:26;28.38;;;12.30;;
44508;SDS011;30214;52.246;14.408;2022-12-18T08:59:53;29.88;;;11.77;;
44508;SDS011;30214;52.246;14.408;2022-12-18T09:02:21;27.05;;;12.10;;
44508;SDS011;30214;52.246;14.408;2022-12-18T09:04:48;28.13;;;11.30;;
44508;SDS011;30214;52.246;14.408;2022-12-18T09:07:16;26.92;;;11.85;;
44508;SDS011;30214;52.246;14.408;2022-12-18T09:09:43;30.90;;;13.05;;
44508;SDS011;30214;52.246;14.408;2022-12-18T09:12:12;26.75;;;12.68;;
44508;SDS011;30214;52.246;14.408;2022-12-18T09:14:39;27.58;;;11.40;;
44508;SDS011;30214;52.246;14.408;2022-12-18T09:17:06;27.25;;;11.10;;
44508;SDS011;30214;52.246;14.408;2022-12-18T09:19:35;29.63;;;12.18;;
44508;SDS011;30214;52.246;14.408;2022-12-18T09:22:02;30.63;;;12.68;;
44508;SDS011;30214;52.246;14.408;2022-12-18T09:24:29;30.05;;;13.57;;
44508;SDS011;30214;52.246;14.408;2022-12-18T09:26:57;30.70;;;12.50;;
44508;SDS011;30214;52.246;14.408;2022-12-18T09:29:24;33.85;;;14.18;;
44508;SDS011;30214;52.246;14.408;2022-12-18T09:31:51;32.78;;;13.38;;
44508;SDS011;30214;52.246;14.408;2022-12-18T09:34:18;32.05;;;12.63;;
44508;SDS011;30214;52.246;14.408;2022-12-18T09:36:48;33.80;;;13.82;;
44508;SDS011;30214;52.246;14.408;2022-12-18T09:39:17;28.38;;;12.95;;
44508;SDS011;30214;52.246;14.408;2022-12-18T09:41:45;28.92;;;11.82;;
44508;SDS011;30214;52.246;14.408;2022-12-18T09:44:21;32.72;;;12.52;;
44508;SDS011;30214;52.246;14.408;2022-12-18T09:46:53;31.85;;;14.43;;
44508;SDS011;30214;52.246;14.408;2022-12-18T09:49:35;30.63;;;13.20;;
44508;SDS011;30214;52.246;14.408;2022-12-18T09:52:14;31.92;;;13.70;;
44508;SDS011;30214;52.246;14.408;2022-12-18T09:54:48;32.40;;;13.82;;
44508;SDS011;30214;52.246;14.408;2022-12-18T09:57:20;26.75;;;13.05;;
44508;SDS011;30214;52.246;14.408;2022-12-18T09:59:50;30.70;;;13.82;;
44508;SDS011;30214;52.246;14.408;2022-12-18T10:02:22;34.30;;;14.55;;
44508;SDS011;30214;52.246;14.408;2022-12-18T10:04:55;37.55;;;14.80;;
44508;SDS011;30214;52.246;14.408;2022-12-18T10:07:40;32.13;;;14.15;;
44508;SDS011;30214;52.246;14.408;2022-12-18T10:10:24;29.10;;;13.40;;
44508;SDS011;30214;52.246;14.408;2022-12-18T10:13:02;35.72;;;15.48;;
44508;SDS011;30214;52.246;14.408;2022-12-18T10:15:40;37.03;;;16.02;;
44508;SDS011;30214;52.246;14.408;2022-12-18T10:18:23;34.88;;;14.48;;
44508;SDS011;30214;52.246;14.408;2022-12-18T10:21:06;33.47;;;14.50;;
44508;SDS011;30214;52.246;14.408;2022-12-18T10:23:41;35.55;;;14.77;;
44508;SDS011;30214;52.246;14.408;2022-12-18T10:26:16;31.50;;;13.35;;
44508;SDS011;30214;52.246;14.408;2022-12-18T10:28:44;33.35;;;12.15;;
44508;SDS011;30214;52.246;14.408;2022-12-18T10:31:12;34.28;;;13.10;;
44508;SDS011;30214;52.246;14.408;2022-12-18T10:33:43;32.55;;;14.05;;
44508;SDS011;30214;52.246;14.408;2022-12-18T10:36:11;31.52;;;13.13;;
44508;SDS011;30214;52.246;14.408;2022-12-18T10:38:39;40.72;;;17.05;;
44508;SDS011;30214;52.246;14.408;2022-12-18T10:41:24;40.42;;;15.38;;
44508;SDS011;30214;52.246;14.408;2022-12-18T10:46:44;32.75;;;16.13;;
44508;SDS011;30214;52.246;14.408;2022-12-18T10:49:19;36.35;;;14.98;;
44508;SDS011;30214;52.246;14.408;2022-12-18T10:51:51;31.33;;;14.18;;
44508;SDS011;30214;52.246;14.408;2022-12-18T10:54:45;36.03;;;16.02;;
44508;SDS011;30214;52.246;14.408;2022-12-18T10:57:15;37.45;;;17.45;;
44508;SDS011;30214;52.246;14.408;2022-12-18T10:59:55;37.25;;;15.18;;
44508;SDS011;30214;52.246;14.408;2022-12-18T11:02:28;32.65;;;13.93;;
44508;SDS011;30214;52.246;14.408;2022-12-18T11:05:02;36.33;;;15.20;;
44508;SDS011;30214;52.246;14.408;2022-12-18T11:07:46;38.22;;;15.50;;
44508;SDS011;30214;52.246;14.408;2022-12-18T11:10:17;31.45;;;13.60;;
44508;SDS011;30214;52.246;14.408;2022-12-18T11:12:46;37.83;;;15.80;;
44508;SDS011;30214;52.246;14.408;2022-12-18T11:15:15;32.72;;;14.25;;
44508;SDS011;30214;52.246;14.408;2022-12-18T11:17:47;37.22;;;13.90;;
44508;SDS011;30214;52.246;14.408;2022-12-18T11:20:21;38.10;;;14.95;;
44508;SDS011;30214;52.246;14.408;2022-12-18T11:22:58;36.70;;;14.90;;
44508;SDS011;30214;52.246;14.408;2022-12-18T11:25:29;38.67;;;14.93;;
44508;SDS011;30214;52.246;14.408;2022-12-18T11:27:58;38.05;;;14.77;;
44508;SDS011;30214;52.246;14.408;2022-12-18T11:30:28;36.72;;;14.48;;
44508;SDS011;30214;52.246;14.408;2022-12-18T11:32:59;35.75;;;14.43;;
44508;SDS011;30214;52.246;14.408;2022-12-18T11:35:34;35.13;;;14.48;;
44508;SDS011;30214;52.246;14.408;2022-12-18T11:38:12;35.67;;;13.80;;
44508;SDS011;30214;52.246;14.408;2022-12-18T11:40:53;37.33;;;14.48;;
44508;SDS011;30214;52.246;14.408;2022-12-18T11:43:26;34.10;;;14.82;;
44508;SDS011;30214;52.246;14.408;2022-12-18T11:45:59;38.92;;;14.88;;
44508;SDS011;30214;52.246;14.408;2022-12-18T11:48:32;37.57;;;15.10;;
44508;SDS011;30214;52.246;14.408;2022-12-18T11:51:04;36.97;;;15.70;;
44508;SDS011;30214;52.246;14.408;2022-12-18T11:53:39;35.28;;;14.73;;
44508;SDS011;30214;52.246;14.408;2022-12-18T11:56:15;39.55;;;15.88;;
44508;SDS011;30214;52.246;14.408;2022-12-18T11:58:58;39.50;;;17.02;;
44508;SDS011;30214;52.246;14.408;2022-12-18T12:01:37;37.30;;;16.63;;
44508;SDS011;30214;52.246;14.408;2022-12-18T12:04:20;37.80;;;17.02;;
44508;SDS011;30214;52.246;14.408;2022-12-18T12:07:12;38.90;;;16.45;;
44508;SDS011;30214;52.246;14.408;2022-12-18T12:12:32;34.85;;;15.98;;
44508;SDS011;30214;52.246;14.408;2022-12-18T12:15:13;37.65;;;15.98;;
44508;SDS011;30214;52.246;14.408;2022-12-18T12:18:04;39.78;;;17.58;;
44508;SDS011;30214;52.246;14.408;2022-12-18T12:20:47;37.42;;;16.23;;
44508;SDS011;30214;52.246;14.408;2022-12-18T12:23:26;38.85;;;17.95;;
44508;SDS011;30214;52.246;14.408;2022-12-18T12:26:02;43.83;;;20.75;;
44508;SDS011;30214;52.246;14.408;2022-12-18T12:28:45;44.65;;;21.38;;
44508;SDS011;30214;52.246;14.408;2022-12-18T12:31:44;48.55;;;22.98;;
44508;SDS011;30214;52.246;14.408;2022-12-18T12:34:34;39.63;;;16.95;;
44508;SDS011;30214;52.246;14.408;2022-12-18T12:37:20;33.05;;;16.48;;
44508;SDS011;30214;52.246;14.408;2022-12-18T12:39:59;33.25;;;15.95;;
44508;SDS011;30214;52.246;14.408;2022-12-18T12:42:30;34.92;;;16.38;;
44508;SDS011;30214;52.246;14.408;2022-12-18T12:45:21;33.70;;;15.52;;
44508;SDS011;30214;52.246;14.408;2022-12-18T12:47:55;33.30;;;15.68;;
44508;SDS011;30214;52.246;14.408;2022-12-18T12:50:25;32.08;;;14.43;;
44508;SDS011;30214;52.246;14.408;2022-12-18T12:52:53;31.45;;;14.32;;
44508;SDS011;30214;52.246;14.408;2022-12-18T12:55:24;31.23;;;15.02;;
44508;SDS011;30214;52.246;14.408;2022-12-18T12:57:56;32.15;;;15.23;;
44508;SDS011;30214;52.246;14.408;2022-12-18T13:00:36;31.08;;;15.18;;
44508;SDS011;30214;52.246;14.408;2022-12-18T13:03:12;30.77;;;14.80;;
44508;SDS011;30214;52.246;14.408;2022-12-18T13:05:49;33.00;;;15.00;;
44508;SDS011;30214;52.246;14.408;2022-12-18T13:08:23;32.20;;;15.13;;
44508;SDS011;30214;52.246;14.408;2022-12-18T13:10:52;29.35;;;14.10;;
44508;SDS011;30214;52.246;14.408;2022-12-18T13:13:48;30.98;;;14.60;;
44508;SDS011;30214;52.246;14.408;2022-12-18T13:16:19;35.30;;;15.10;;
44508;SDS011;30214;52.246;14.408;2022-12-18T13:18:49;37.30;;;17.77;;
44508;SDS011;30214;52.246;14.408;2022-12-18T13:21:21;34.40;;;17.42;;
44508;SDS011;30214;52.246;14.408;2022-12-18T13:23:52;28.92;;;15.20;;
44508;SDS011;30214;52.246;14.408;2022-12-18T13:26:29;30.20;;;14.80;;
44508;SDS011;30214;52.246;14.408;2022-12-18T13:28:59;33.92;;;15.40;;
44508;SDS011;30214;52.246;14.408;2022-12-18T13:34:48;33.67;;;16.00;;
44508;SDS011;30214;52.246;14.408;2022-12-18T13:37:54;35.10;;;16.90;;
44508;SDS011;30214;52.246;14.408;2022-12-18T13:43:23;34.90;;;15.70;;
44508;SDS011;30214;52.246;14.408;2022-12-18T13:46:05;33.83;;;16.08;;
44508;SDS011;30214;52.246;14.408;2022-12-18T13:48:54;35.65;;;15.25;;
44508;SDS011;30214;52.246;14.408;2022-12-18T13:51:25;33.78;;;15.75;;
44508;SDS011;30214;52.246;14.408;2022-12-18T13:53:55;31.02;;;13.85;;
44508;SDS011;30214;52.246;14.408;2022-12-18T13:56:25;32.45;;;15.13;;
44508;SDS011;30214;52.246;14.408;2022-12-18T13:59:14;29.27;;;14.20;;
44508;SDS011;30214;52.246;14.408;2022-12-18T14:01:45;30.80;;;14.43;;
44508;SDS011;30214;52.246;14.408;2022-12-18T14:04:20;28.55;;;13.80;;
44508;SDS011;30214;52.246;14.408;2022-12-18T14:06:54;32.45;;;15.63;;
44508;SDS011;30214;52.246;14.408;2022-12-18T14:09:28;41.13;;;18.63;;
44508;SDS011;30214;52.246;14.408;2022-12-18T14:11:57;34.47;;;16.75;;
44508;SDS011;30214;52.246;14.408;2022-12-18T14:14:40;35.50;;;17.55;;
44508;SDS011;30214;52.246;14.408;2022-12-18T14:17:11;34.42;;;16.42;;
44508;SDS011;30214;52.246;14.408;2022-12-18T14:19:42;29.75;;;15.60;;
44508;SDS011;30214;52.246;14.408;2022-12-18T14:22:15;32.10;;;15.63;;
44508;SDS011;30214;52.246;14.408;2022-12-18T14:24:44;32.10;;;15.02;;
44508;SDS011;30214;52.246;14.408;2022-12-18T14:27:19;34.00;;;15.23;;
44508;SDS011;30214;52.246;14.408;2022-12-18T14:29:49;34.67;;;15.75;;
44508;SDS011;30214;52.246;14.408;2022-12-18T14:32:18;31.40;;;15.40;;
44508;SDS011;30214;52.246;14.408;2022-12-18T14:34:49;34.60;;;15.82;;
44508;SDS011;30214;52.246;14.408;2022-12-18T14:37:22;34.05;;;17.08;;
44508;SDS011;30214;52.246;14.408;2022-12-18T14:39:52;30.50;;;13.73;;
44508;SDS011;30214;52.246;14.408;2022-12-18T14:48:09;28.73;;;14.60;;
44508;SDS011;30214;52.246;14.408;2022-12-18T14:50:44;35.75;;;16.33;;
44508;SDS011;30214;52.246;14.408;2022-12-18T14:53:23;29.98;;;15.57;;
44508;SDS011;30214;52.246;14.408;2022-12-18T14:56:00;31.98;;;15.73;;